createdAt,value
2023-08-08T00:03:27.247Z,100.00
2023-08-08T00:08:30.457Z,100.00
2023-08-08T00:13:33.353Z,100.00
2023-08-08T00:18:36.121Z,100.00
2023-08-08T00:23:38.951Z,100.00
2023-08-08T00:28:41.777Z,100.00
2023-08-08T00:33:44.609Z,99.01
2023-08-08T00:38:47.348Z,97.86
2023-08-08T00:43:51.447Z,99.19
2023-08-08T00:48:54.453Z,99.00
2023-08-08T00:53:57.374Z,98.57
2023-08-08T00:59:00.195Z,98.69
2023-08-08T01:04:03.334Z,97.71
2023-08-08T01:09:30.031Z,96.76
2023-08-08T01:14:35.270Z,95.43
2023-08-08T01:19:38.657Z,94.98
2023-08-08T01:24:42.299Z,94.27
2023-08-08T01:29:45.136Z,94.41
2023-08-08T01:34:48.290Z,94.55
2023-08-08T01:39:52.111Z,95.33
2023-08-08T01:44:56.745Z,96.16
2023-08-08T01:49:59.595Z,96.81
2023-08-08T01:55:02.792Z,96.77
2023-08-08T02:00:07.029Z,96.96
2023-08-08T02:05:09.976Z,97.31
2023-08-08T02:10:12.782Z,98.01
2023-08-08T02:15:15.657Z,98.74
2023-08-08T02:20:19.372Z,99.49
2023-08-08T02:25:22.293Z,100.00
2023-08-08T02:30:25.194Z,100.00
2023-08-08T02:35:28.284Z,100.00
2023-08-08T02:40:31.166Z,100.00
2023-08-08T02:45:34.085Z,100.00
2023-08-08T02:50:36.859Z,100.00
2023-08-08T02:55:39.736Z,100.00
2023-08-08T03:00:42.549Z,100.00
2023-08-08T03:05:47.166Z,100.00
2023-08-08T03:10:50.930Z,100.00
2023-08-08T03:15:53.848Z,100.00
2023-08-08T03:20:56.979Z,100.00
2023-08-08T03:25:59.813Z,100.00
2023-08-08T03:31:04.510Z,100.00
2023-08-08T03:36:07.730Z,100.00
2023-08-08T03:41:10.970Z,100.00
2023-08-08T03:46:13.951Z,100.00
2023-08-08T03:51:16.715Z,100.00
2023-08-08T03:56:19.593Z,100.00
2023-08-08T04:01:22.635Z,100.00
2023-08-08T04:06:25.641Z,100.00
2023-08-08T04:11:28.619Z,100.00
2023-08-08T04:16:31.393Z,100.00
2023-08-08T04:21:34.322Z,100.00
2023-08-08T04:26:37.060Z,100.00
2023-08-08T04:31:39.981Z,100.00
2023-08-08T04:36:42.825Z,100.00
2023-08-08T04:41:45.564Z,100.00
2023-08-08T04:46:48.616Z,100.00
2023-08-08T04:51:51.551Z,100.00
2023-08-08T04:56:54.377Z,100.00
2023-08-08T05:01:57.326Z,100.00
2023-08-08T05:07:00.187Z,100.00
2023-08-08T05:12:03.644Z,99.97
2023-08-08T05:17:07.379Z,99.90
2023-08-08T05:22:10.449Z,99.60
2023-08-08T05:27:13.289Z,98.41
2023-08-08T05:32:16.069Z,97.69
2023-08-08T05:37:18.984Z,97.00
2023-08-08T05:42:21.962Z,96.54
2023-08-08T05:47:24.972Z,96.57
2023-08-08T05:52:27.887Z,95.36
2023-08-08T05:57:30.767Z,93.09
2023-08-08T06:02:33.657Z,90.79
2023-08-08T06:07:36.611Z,90.48
2023-08-08T06:12:39.544Z,89.30
2023-08-08T06:17:42.658Z,89.41
2023-08-08T06:22:45.679Z,89.04
2023-08-08T06:27:50.258Z,87.76
2023-08-08T06:32:53.379Z,87.27
2023-08-08T06:37:56.382Z,85.30
2023-08-08T06:42:59.391Z,84.11
2023-08-08T06:48:02.413Z,82.71
2023-08-08T06:53:06.025Z,84.45
2023-08-08T06:58:09.047Z,83.58
2023-08-08T07:03:12.331Z,83.36
2023-08-08T07:08:16.553Z,83.44
2023-08-08T07:13:19.559Z,81.93
2023-08-08T07:18:22.869Z,80.41
2023-08-08T07:23:28.193Z,79.19
2023-08-08T07:28:45.637Z,78.26
2023-08-08T07:33:48.596Z,75.82
2023-08-08T07:38:51.569Z,75.69
2023-08-08T07:43:54.649Z,76.45
2023-08-08T07:49:00.368Z,76.27
2023-08-08T07:54:03.620Z,75.47
2023-08-08T07:59:07.514Z,75.32
2023-08-08T08:04:10.485Z,75.68
2023-08-08T08:09:14.074Z,74.90
2023-08-08T08:14:17.084Z,73.93
2023-08-08T08:19:21.012Z,72.79
2023-08-08T08:24:24.635Z,73.63
2023-08-08T08:29:27.611Z,73.22
2023-08-08T08:34:30.493Z,73.60
2023-08-08T08:39:33.358Z,72.93
2023-08-08T08:44:37.051Z,71.88
2023-08-08T08:49:40.504Z,72.36
2023-08-08T08:54:43.883Z,70.57
2023-08-08T08:59:46.853Z,71.64
2023-08-08T09:04:49.888Z,71.63
2023-08-08T09:09:52.756Z,71.84
2023-08-08T09:14:57.776Z,70.28
2023-08-08T09:20:01.220Z,69.47
2023-08-08T09:25:05.097Z,68.80
2023-08-08T09:30:10.168Z,65.86
2023-08-08T09:35:13.465Z,62.61
2023-08-08T09:40:18.664Z,60.60
2023-08-08T09:45:24.893Z,59.57
2023-08-08T09:50:29.811Z,59.76
2023-08-08T09:55:34.094Z,56.99
2023-08-08T10:00:37.484Z,58.96
2023-08-08T10:05:40.702Z,60.65
2023-08-08T10:10:49.514Z,59.35
2023-08-08T10:15:53.812Z,57.25
2023-08-08T10:20:59.056Z,57.39
2023-08-08T10:26:03.814Z,60.18
2023-08-08T10:31:09.748Z,58.47
2023-08-08T10:36:14.624Z,55.74
2023-08-08T10:41:19.892Z,51.09
2023-08-08T10:46:34.933Z,51.51
2023-08-08T10:51:40.151Z,51.64
2023-08-08T10:56:52.966Z,52.57
2023-08-08T11:01:58.126Z,51.36
2023-08-08T11:07:02.052Z,50.04
2023-08-08T11:12:06.066Z,49.04
2023-08-08T11:17:09.021Z,49.57
2023-08-08T11:22:14.979Z,50.08
2023-08-08T11:27:42.559Z,50.06
2023-08-08T11:32:40.869Z,50.08
2023-08-08T11:37:47.756Z,49.94
2023-08-08T11:42:52.726Z,50.91
2023-08-08T11:48:04.833Z,52.22
2023-08-08T11:53:08.996Z,52.31
2023-08-08T11:58:16.118Z,51.19
2023-08-08T12:03:21.907Z,50.97
2023-08-08T12:08:27.379Z,51.01
2023-08-08T12:13:32.821Z,49.74
2023-08-08T12:18:39.068Z,47.53
2023-08-08T12:23:42.141Z,48.59
2023-08-08T12:28:45.610Z,47.57
2023-08-08T12:33:50.080Z,47.06
2023-08-08T12:38:53.091Z,47.90
2023-08-08T12:43:56.563Z,48.23
2023-08-08T12:48:59.371Z,48.33
2023-08-08T12:54:02.245Z,49.08
2023-08-08T12:59:05.335Z,49.01
2023-08-08T13:09:14.117Z,47.61
2023-08-08T13:14:17.568Z,47.04
2023-08-08T13:19:22.541Z,47.31
2023-08-08T13:24:25.406Z,47.46
2023-08-08T13:29:28.440Z,46.85
2023-08-08T13:34:31.439Z,47.67
2023-08-08T13:39:34.463Z,53.12
2023-08-08T13:44:38.684Z,68.68
2023-08-08T13:49:45.743Z,75.89
2023-08-08T13:54:50.408Z,81.03
2023-08-08T13:59:54.544Z,83.32
2023-08-08T14:04:57.756Z,85.64
2023-08-08T14:10:01.168Z,84.51
2023-08-08T14:15:07.927Z,82.71
2023-08-08T14:20:12.602Z,79.98
2023-08-08T14:25:16.475Z,77.43
2023-08-08T14:30:19.620Z,70.50
2023-08-08T14:35:22.700Z,66.08
2023-08-08T14:40:25.694Z,62.24
2023-08-08T14:45:29.319Z,60.46
2023-08-08T14:50:33.299Z,59.20
2023-08-08T14:55:36.198Z,59.19
2023-08-08T15:00:39.052Z,60.29
2023-08-08T15:05:42.318Z,61.66
2023-08-08T15:10:45.971Z,63.84
2023-08-08T15:15:49.108Z,64.62
2023-08-08T15:20:52.681Z,64.78
2023-08-08T15:25:56.528Z,61.07
2023-08-08T15:30:59.494Z,56.43
2023-08-08T15:36:02.386Z,51.56
2023-08-08T15:41:05.234Z,48.36
2023-08-08T15:46:09.455Z,48.73
2023-08-08T15:51:12.338Z,49.83
2023-08-08T15:56:15.250Z,52.48
2023-08-08T16:01:18.203Z,54.56
2023-08-08T16:06:21.141Z,56.60
2023-08-08T16:11:24.006Z,56.86
2023-08-08T16:16:26.955Z,56.33
2023-08-08T16:21:29.919Z,54.55
2023-08-08T16:26:33.111Z,50.25
2023-08-08T16:31:36.171Z,50.09
2023-08-08T16:36:41.240Z,52.03
2023-08-08T16:41:44.646Z,52.89
2023-08-08T16:46:48.373Z,54.72
2023-08-08T16:51:51.645Z,56.07
2023-08-08T16:56:56.870Z,53.18
2023-08-08T17:02:05.681Z,47.60
2023-08-08T17:07:11.804Z,43.91
2023-08-08T17:12:20.757Z,41.55
2023-08-08T17:17:27.305Z,40.13
2023-08-08T17:22:31.188Z,38.87
2023-08-08T17:27:36.997Z,38.89
2023-08-08T17:32:45.790Z,39.10
2023-08-08T17:37:49.357Z,40.90
2023-08-08T17:42:52.231Z,44.35
2023-08-08T17:47:55.141Z,47.62
2023-08-08T17:52:58.336Z,51.02
2023-08-08T17:58:01.177Z,53.98
2023-08-08T18:03:04.435Z,57.02
2023-08-08T18:08:07.501Z,60.29
2023-08-08T18:13:10.373Z,62.60
2023-08-08T18:18:13.306Z,65.00
2023-08-08T18:23:16.161Z,67.49
2023-08-08T18:28:19.945Z,69.30
2023-08-08T18:33:22.989Z,71.14
2023-08-08T18:38:25.865Z,73.27
2023-08-08T18:43:29.255Z,74.95
2023-08-08T18:48:32.759Z,76.18
2023-08-08T18:53:36.571Z,77.36
2023-08-08T18:58:39.935Z,78.98
2023-08-08T19:03:42.989Z,80.17
2023-08-08T19:08:46.213Z,81.22
2023-08-08T19:13:49.807Z,82.35
2023-08-08T19:18:54.335Z,83.40
2023-08-08T19:23:59.174Z,84.03
2023-08-08T19:29:04.068Z,85.57
2023-08-08T19:34:07.908Z,85.52
2023-08-08T19:39:11.137Z,86.36
2023-08-08T19:44:13.909Z,87.76
2023-08-08T19:49:16.790Z,88.91
2023-08-08T19:54:19.645Z,89.82
2023-08-08T19:59:22.691Z,90.37
2023-08-08T20:04:25.596Z,92.57
2023-08-08T20:09:28.363Z,93.48
2023-08-08T20:14:32.249Z,93.71
2023-08-08T20:19:35.247Z,94.41
2023-08-08T20:24:38.109Z,95.19
2023-08-08T20:29:40.886Z,95.45
2023-08-08T20:34:43.773Z,95.80
2023-08-08T20:39:47.556Z,96.04
2023-08-08T20:44:50.887Z,96.09
2023-08-08T20:50:01.432Z,96.18
2023-08-08T20:55:06.216Z,96.05
2023-08-08T21:00:11.707Z,95.77
2023-08-08T21:05:19.165Z,95.55
2023-08-08T21:10:23.032Z,95.28
2023-08-08T21:15:26.765Z,95.14
2023-08-08T21:20:32.089Z,95.29
2023-08-08T21:25:35.662Z,95.65
2023-08-08T21:30:43.211Z,96.42
2023-08-08T21:35:50.506Z,96.81
2023-08-08T21:40:53.928Z,98.24
2023-08-08T21:45:56.828Z,99.45
2023-08-08T21:50:59.772Z,99.92
2023-08-08T21:56:02.666Z,100.00
2023-08-08T22:01:06.637Z,100.00
2023-08-08T22:06:09.620Z,100.00
2023-08-08T22:11:12.598Z,100.00
2023-08-08T22:16:15.684Z,100.00
2023-08-08T22:21:18.642Z,100.00
2023-08-08T22:26:21.551Z,100.00
2023-08-08T22:31:24.669Z,100.00
2023-08-08T22:36:28.222Z,100.00
2023-08-08T22:41:31.074Z,100.00
2023-08-08T22:46:34.544Z,100.00
2023-08-08T22:51:44.721Z,100.00
2023-08-08T22:56:49.104Z,100.00
2023-08-08T23:01:53.140Z,100.00
2023-08-08T23:06:56.117Z,100.00
2023-08-08T23:11:58.925Z,100.00
2023-08-08T23:17:02.085Z,100.00
2023-08-08T23:22:05.689Z,100.00
2023-08-08T23:27:08.527Z,100.00
2023-08-08T23:32:11.430Z,100.00
2023-08-08T23:37:20.792Z,100.00
2023-08-08T23:42:24.165Z,100.00
2023-08-08T23:47:27.065Z,100.00
2023-08-08T23:52:29.858Z,100.00
2023-08-08T23:57:32.756Z,100.00
